Time;durP1;ratioP1;P1;durP2;ratioP2;P2;SDS_P1;SDS_P2;PMS_P1;PMS_P2;Temp;Humidity;BMP_temperature;BMP_pressure;BME280_temperature;BME280_humidity;BME280_pressure;Samples;Min_cycle;Max_cycle;Signal;HPM_P1;HPM_P2
2021/04/12 00:01:50;;;;;;;;;;;;;;;8.79;59.37;100514.80;1737792;80;20198;-74
2021/04/12 00:04:50;;;;;;;;;;;;;;;8.80;59.31;100512.63;1735470;80;20276;-74
2021/04/12 00:07:44;;;;;;;;;;;;;;;8.79;59.40;100507.91;1746938;80;20280;-74
2021/04/12 00:10:41;;;;;;;;;;;;;;;8.81;59.46;100520.78;1754869;80;20181;-74
2021/04/12 00:13:46;;;;;;;;;;;;;;;8.80;59.53;100520.37;1700506;83;20280;-75
2021/04/12 00:16:36;;;;;;;;;;;;;;;8.80;59.57;100521.22;1680147;84;20314;-75
2021/04/12 00:19:30;;;;;;;;;;;;;;;8.80;59.56;100525.09;1698985;83;20492;-75
2021/04/12 00:22:21;;;;;;;;;;;;;;;8.78;59.57;100524.25;1701396;83;20292;-75
2021/04/12 00:25:11;;;;;;;;;;;;;;;8.77;59.61;100534.14;1686093;84;20275;-75
2021/04/12 00:28:02;;;;;;;;;;;;;;;8.75;59.62;100528.14;1693602;84;20321;-75
2021/04/12 00:30:56;;;;;;;;;;;;;;;8.72;59.66;100533.77;1686663;84;20266;-75
2021/04/12 00:33:45;;;;;;;;;;;;;;;8.67;59.67;100528.66;1637622;87;20293;-75
2021/04/12 00:36:45;;;;;;;;;;;;;;;8.67;59.79;100523.93;1668857;84;20274;-75
2021/04/12 00:39:41;;;;;;;;;;;;;;;8.65;59.87;100521.80;1675648;85;567566;-75
2021/04/12 00:42:50;;;;;;;;;;;;;;;8.63;59.92;100527.83;1684606;83;20178;-75
2021/04/12 00:45:49;;;;;;;;;;;;;;;8.64;59.99;100519.66;1683268;83;20177;-74
2021/04/12 00:49:09;;;;;;;;;;;;;;;8.62;60.01;100516.24;1684313;83;20291;-74
2021/04/12 00:52:09;;;;;;;;;;;;;;;8.58;59.98;100526.16;1731628;82;20187;-74
2021/04/12 00:55:15;;;;;;;;;;;;;;;8.55;60.06;100528.33;1730264;81;20472;-74
2021/04/12 00:58:30;;;;;;;;;;;;;;;8.51;60.05;100530.95;1732147;81;20262;-74
2021/04/12 01:01:18;;;;;;;;;;;;;;;8.46;60.13;100525.83;1717619;81;20301;-75
2021/04/12 01:04:20;;;;;;;;;;;;;;;8.43;60.26;100523.28;1695272;80;20570;-75
2021/04/12 01:07:25;;;;;;;;;;;;;;;8.40;60.20;100534.05;1714387;81;20465;-75
2021/04/12 01:10:35;;;;;;;;;;;;;;;8.33;60.34;100529.38;1724244;82;20542;-75
2021/04/12 01:13:57;;;;;;;;;;;;;;;8.30;60.42;100526.83;1725311;81;21126;-75
2021/04/12 01:16:58;;;;;;;;;;;;;;;8.25;60.45;100535.87;1733648;81;20303;-75
2021/04/12 01:20:02;;;;;;;;;;;;;;;8.20;60.55;100530.34;1730267;81;20659;-75
2021/04/12 01:22:57;;;;;;;;;;;;;;;8.17;60.56;100547.95;1740915;81;20301;-75
2021/04/12 01:25:45;;;;;;;;;;;;;;;8.11;60.58;100544.57;1731322;81;20289;-75
2021/04/12 01:28:38;;;;;;;;;;;;;;;8.07;60.67;100558.33;1714203;81;20293;-75
2021/04/12 01:31:39;;;;;;;;;;;;;;;8.05;60.65;100563.92;1723532;82;20293;-75
2021/04/12 01:35:00;;;;;;;;;;;;;;;8.02;60.70;100575.09;1707758;82;20288;-75
2021/04/12 01:38:08;;;;;;;;;;;;;;;8.00;60.74;100588.84;1735215;80;20295;-75
2021/04/12 01:41:11;;;;;;;;;;;;;;;7.98;60.81;100592.28;1732845;80;20580;-75
2021/04/12 01:44:09;;;;;;;;;;;;;;;7.97;60.90;100593.58;1753365;80;20376;-75
2021/04/12 01:47:09;;;;;;;;;;;;;;;7.96;60.95;100590.58;1762922;80;20305;-75
2021/04/12 01:50:06;;;;;;;;;;;;;;;7.88;60.91;100592.34;1749003;80;20320;-75
2021/04/12 01:53:26;;;;;;;;;;;;;;;7.88;61.03;100597.49;1752927;80;20320;-75
2021/04/12 01:56:29;;;;;;;;;;;;;;;7.89;61.11;100600.48;1745369;80;21268;-74
2021/04/12 01:59:39;;;;;;;;;;;;;;;7.90;61.18;100597.91;1743154;81;20414;-75
2021/04/12 02:02:27;;;;;;;;;;;;;;;7.91;61.19;100596.19;1743946;80;20308;-74
2021/04/12 02:05:23;;;;;;;;;;;;;;;7.93;61.22;100603.47;1749424;80;20304;-74
2021/04/12 02:08:27;;;;;;;;;;;;;;;7.93;61.25;100610.77;1752061;80;20323;-74
2021/04/12 02:11:21;;;;;;;;;;;;;;;7.94;61.32;100617.63;1778141;80;20588;-74
2021/04/12 02:14:26;;;;;;;;;;;;;;;7.96;61.33;100619.77;1748732;80;20510;-74
2021/04/12 02:17:17;;;;;;;;;;;;;;;7.99;61.33;100622.75;1751772;80;20292;-74
2021/04/12 02:20:15;;;;;;;;;;;;;;;8.00;61.36;100626.19;1762807;80;20254;-74
2021/04/12 02:23:17;;;;;;;;;;;;;;;8.00;61.35;100625.75;1759166;80;20268;-74
2021/04/12 02:26:14;;;;;;;;;;;;;;;7.99;61.39;100629.19;1737414;80;20268;-74
2021/04/12 02:29:23;;;;;;;;;;;;;;;7.99;61.47;100634.34;1750005;80;20169;-74
2021/04/12 02:32:27;;;;;;;;;;;;;;;7.97;61.51;100639.50;1733810;80;20265;-75
2021/04/12 02:35:38;;;;;;;;;;;;;;;7.96;61.51;100639.07;1743286;80;20280;-75
2021/04/12 02:38:29;;;;;;;;;;;;;;;7.95;61.58;100647.66;1707073;82;20263;-75
2021/04/12 02:41:41;;;;;;;;;;;;;;;7.92;61.59;100648.96;1732325;82;20261;-75
2021/04/12 02:45:01;;;;;;;;;;;;;;;7.85;61.68;100649.84;1717011;82;20472;-75
2021/04/12 02:48:00;;;;;;;;;;;;;;;7.79;61.92;100655.05;1676473;84;20282;-74
2021/04/12 02:50:51;;;;;;;;;;;;;;;7.78;62.02;100663.64;1710264;82;20579;-74
2021/04/12 02:53:56;;;;;;;;;;;;;;;7.78;62.19;100666.64;1727306;82;20166;-74
2021/04/12 02:56:50;;;;;;;;;;;;;;;7.78;62.33;100673.94;1731243;82;20297;-75
2021/04/12 02:59:38;;;;;;;;;;;;;;;7.81;62.44;100676.89;1723928;82;20518;-75
2021/04/12 03:02:50;;;;;;;;;;;;;;;7.83;62.49;100684.19;1712446;82;20576;-75
2021/04/12 03:05:44;;;;;;;;;;;;;;;7.85;62.48;100692.75;1709290;82;20287;-75
2021/04/12 03:08:44;;;;;;;;;;;;;;;7.84;62.51;100692.33;1723664;82;20583;-74
2021/04/12 03:12:02;;;;;;;;;;;;;;;7.85;62.70;100697.48;1718631;82;20309;-74
2021/04/12 03:15:15;;;;;;;;;;;;;;;7.83;62.74;100699.62;1706069;82;20291;-75
2021/04/12 03:18:12;;;;;;;;;;;;;;;7.81;62.78;100702.20;1729664;82;20412;-75
2021/04/12 03:21:03;;;;;;;;;;;;;;;7.77;62.73;100709.55;1721813;82;20301;-75
2021/04/12 03:24:08;;;;;;;;;;;;;;;7.73;62.92;100714.28;1731039;82;20404;-75
2021/04/12 03:27:13;;;;;;;;;;;;;;;7.70;63.05;100715.57;1730938;82;20301;-75
2021/04/12 03:30:20;;;;;;;;;;;;;;;7.67;63.09;100715.58;1730131;82;20636;-75
2021/04/12 03:33:24;;;;;;;;;;;;;;;7.62;63.14;100720.73;1631132;85;20320;-74
2021/04/12 03:36:35;;;;;;;;;;;;;;;7.56;63.21;100726.32;1630450;87;20595;-74
2021/04/12 03:39:27;;;;;;;;;;;;;;;7.52;63.31;100719.03;1587432;88;20485;-74
2021/04/12 03:42:21;;;;;;;;;;;;;;;7.47;63.28;100719.48;1607364;88;20347;-75
2021/04/12 03:45:12;;;;;;;;;;;;;;;7.43;63.35;100731.06;1593086;89;20348;-75
2021/04/12 03:48:15;;;;;;;;;;;;;;;7.39;63.32;100731.92;1553679;90;20326;-75
2021/04/12 03:51:09;;;;;;;;;;;;;;;7.33;63.34;100738.36;1603373;88;20371;-75
2021/04/12 03:54:06;;;;;;;;;;;;;;;7.31;63.65;100740.50;1594699;89;20343;-75
2021/04/12 03:56:57;;;;;;;;;;;;;;;7.36;63.78;100751.22;1591499;89;20313;-75
2021/04/12 04:00:05;;;;;;;;;;;;;;;7.42;63.76;100749.92;1603685;89;20322;-75
2021/04/12 04:03:27;;;;;;;;;;;;;;;7.44;63.55;100748.20;1590405;88;20346;-75
2021/04/12 04:06:22;;;;;;;;;;;;;;;7.47;63.61;100757.21;1594108;89;20582;-75
2021/04/12 04:09:16;;;;;;;;;;;;;;;7.50;63.86;100755.92;1590314;85;20404;-75
2021/04/12 04:12:16;;;;;;;;;;;;;;;7.53;63.92;100755.92;1655360;85;20272;-75
2021/04/12 04:15:26;;;;;;;;;;;;;;;7.53;63.91;100754.20;1640497;85;20224;-75
2021/04/12 04:18:37;;;;;;;;;;;;;;;7.52;63.81;100768.36;1715999;82;20279;-75
2021/04/12 04:21:25;;;;;;;;;;;;;;;7.51;63.85;100776.94;1737120;82;20269;-75
2021/04/12 04:24:30;;;;;;;;;;;;;;;7.51;63.94;100781.65;1725304;82;36164;-75
2021/04/12 04:27:39;;;;;;;;;;;;;;;7.52;63.96;100781.22;1732262;82;20275;-75
2021/04/12 04:30:37;;;;;;;;;;;;;;;7.51;63.89;100792.38;1740106;82;20178;-75
2021/04/12 04:34:00;;;;;;;;;;;;;;;7.51;64.02;100796.23;1720960;81;20277;-75
2021/04/12 04:37:05;;;;;;;;;;;;;;;7.54;64.09;100798.80;1724776;82;20571;-75
2021/04/12 04:40:05;;;;;;;;;;;;;;;7.56;64.13;100802.23;1719494;81;20165;-75
2021/04/12 04:43:12;;;;;;;;;;;;;;;7.60;64.19;100796.22;1716910;82;20273;-75
2021/04/12 04:46:15;;;;;;;;;;;;;;;7.67;64.22;100813.37;1730583;81;20277;-75
2021/04/12 04:49:22;;;;;;;;;;;;;;;7.75;64.25;100817.23;1716923;81;20250;-75
2021/04/12 04:52:32;;;;;;;;;;;;;;;7.83;64.34;100816.76;1721822;81;20297;-75
2021/04/12 04:55:40;;;;;;;;;;;;;;;7.86;64.07;100815.47;1723905;82;20265;-75
2021/04/12 04:58:37;;;;;;;;;;;;;;;7.93;64.33;100821.89;1734010;82;20277;-75
2021/04/12 05:01:57;;;;;;;;;;;;;;;8.07;64.35;100816.71;1726982;82;20481;-75
2021/04/12 05:05:18;;;;;;;;;;;;;;;8.19;64.46;100819.26;1721371;81;20261;-75
2021/04/12 05:08:23;;;;;;;;;;;;;;;8.40;64.36;100826.06;1733474;82;20278;-81
2021/04/12 05:11:26;;;;;;;;;;;;;;;8.48;64.11;100832.05;1717249;82;20192;-77
2021/04/12 05:14:14;;;;;;;;;;;;;;;8.49;64.18;100836.34;1726032;82;20259;-77
2021/04/12 05:17:02;;;;;;;;;;;;;;;8.45;64.13;100841.08;1727933;82;20172;-77
2021/04/12 05:19:59;;;;;;;;;;;;;;;8.41;64.15;100855.27;1723974;82;20258;-77
2021/04/12 05:22:58;;;;;;;;;;;;;;;8.39;64.03;100855.70;1741759;81;20281;-77
2021/04/12 05:25:58;;;;;;;;;;;;;;;8.28;64.16;100871.19;1687919;84;20194;-78
2021/04/12 05:28:55;;;;;;;;;;;;;;;8.27;64.35;100873.34;1725057;81;20194;-78
2021/04/12 05:31:52;;;;;;;;;;;;;;;8.25;64.26;100874.63;1735807;82;20273;-78
2021/04/12 05:35:03;;;;;;;;;;;;;;;8.23;64.31;100890.52;1722625;82;20299;-78
2021/04/12 05:38:03;;;;;;;;;;;;;;;8.23;64.51;100884.51;1716311;82;21237;-77
2021/04/12 05:41:25;;;;;;;;;;;;;;;8.21;64.18;100886.23;1694106;83;20659;-77
2021/04/12 05:44:16;;;;;;;;;;;;;;;8.16;64.56;100895.68;1698185;83;21043;-77
2021/04/12 05:47:08;;;;;;;;;;;;;;;8.20;64.69;100904.69;1695275;84;20284;-77
2021/04/12 05:50:16;;;;;;;;;;;;;;;8.19;64.59;100900.39;1701485;83;20632;-77
2021/04/12 05:53:13;;;;;;;;;;;;;;;8.17;64.62;100907.70;1703193;83;20303;-77
2021/04/12 05:56:32;;;;;;;;;;;;;;;8.15;64.67;100911.56;1699257;83;20290;-78
2021/04/12 05:59:49;;;;;;;;;;;;;;;8.15;64.69;100910.28;1695765;83;21136;-77
2021/04/12 06:02:40;;;;;;;;;;;;;;;8.17;64.72;100915.42;1700545;83;20326;-78
2021/04/12 06:05:37;;;;;;;;;;;;;;;8.20;64.70;100927.02;1554199;83;5002849;-79
2021/04/12 06:08:25;;;;;;;;;;;;;;;8.21;64.58;100932.59;1691994;84;20164;-77
2021/04/12 06:11:33;;;;;;;;;;;;;;;8.27;64.84;100937.73;1703652;84;20234;-78
2021/04/12 06:14:32;;;;;;;;;;;;;;;8.28;64.72;100942.89;1700679;83;20276;-78
2021/04/12 06:17:49;;;;;;;;;;;;;;;8.34;64.79;100947.17;1686031;83;20273;-78
2021/04/12 06:21:09;;;;;;;;;;;;;;;8.35;64.81;100949.33;1694318;83;20757;-78
2021/04/12 06:23:57;;;;;;;;;;;;;;;8.36;64.69;100960.06;1693465;83;20569;-78
2021/04/12 06:26:45;;;;;;;;;;;;;;;8.29;64.72;100969.52;1698408;83;20287;-78
2021/04/12 06:29:39;;;;;;;;;;;;;;;8.27;64.69;100973.80;1687570;83;20336;-78
2021/04/12 06:32:46;;;;;;;;;;;;;;;8.17;64.62;100978.10;1710501;82;20321;-78
2021/04/12 06:35:46;;;;;;;;;;;;;;;8.13;64.79;100981.54;1677584;84;20287;-78
2021/04/12 06:38:43;;;;;;;;;;;;;;;8.11;64.78;100990.98;1698198;82;20312;-78
2021/04/12 06:41:43;;;;;;;;;;;;;;;8.11;64.80;100996.56;1686241;83;20558;-78
2021/04/12 06:44:51;;;;;;;;;;;;;;;8.06;64.79;101003.43;1706959;83;20304;-78
2021/04/12 06:47:59;;;;;;;;;;;;;;;8.01;64.76;101007.28;1700698;83;20307;-77
2021/04/12 06:51:07;;;;;;;;;;;;;;;8.00;64.89;101016.30;1693501;83;20313;-78
2021/04/12 06:54:11;;;;;;;;;;;;;;;7.97;64.83;101023.59;1708561;82;20197;-78
2021/04/12 06:57:16;;;;;;;;;;;;;;;7.91;64.83;101030.02;1700277;82;21298;-77
2021/04/12 07:00:07;;;;;;;;;;;;;;;7.86;64.91;101026.15;1684128;83;20207;-77
2021/04/12 07:03:20;;;;;;;;;;;;;;;7.84;65.01;101032.15;1669156;83;20294;-78
2021/04/12 07:06:37;;;;;;;;;;;;;;;7.87;64.97;101037.30;1695938;83;20560;-78
2021/04/12 07:09:34;;;;;;;;;;;;;;;7.85;65.06;101041.59;1691928;83;20590;-77
2021/04/12 07:12:48;;;;;;;;;;;;;;;7.90;65.12;101039.89;1705460;82;20388;-78
2021/04/12 07:15:55;;;;;;;;;;;;;;;7.88;65.02;101040.31;1686152;83;20295;-76
2021/04/12 07:18:46;;;;;;;;;;;;;;;7.84;65.08;101047.17;1708035;82;20297;-76
2021/04/12 07:22:03;;;;;;;;;;;;;;;7.83;65.16;101062.19;1694938;84;20288;-76
2021/04/12 07:25:11;;;;;;;;;;;;;;;7.85;65.20;101061.77;1698159;83;20384;-77
2021/04/12 07:28:33;;;;;;;;;;;;;;;7.85;65.23;101059.19;1700292;82;20318;-76
2021/04/12 07:31:52;;;;;;;;;;;;;;;7.85;65.31;101076.34;1703168;82;20698;-77
2021/04/12 07:35:06;;;;;;;;;;;;;;;7.86;65.33;101079.36;1688940;83;20572;-77
2021/04/12 07:38:29;;;;;;;;;;;;;;;7.84;65.41;101070.77;1693516;83;20393;-77
2021/04/12 07:41:17;;;;;;;;;;;;;;;7.77;65.46;101085.80;1699185;83;20345;-78
2021/04/12 07:44:05;;;;;;;;;;;;;;;7.73;65.64;101087.50;1685377;84;20642;-77
2021/04/12 07:47:16;;;;;;;;;;;;;;;7.68;65.63;101096.06;1707977;82;20666;-77
2021/04/12 07:50:21;;;;;;;;;;;;;;;7.61;65.69;101109.33;1707868;82;20605;-77
2021/04/12 07:53:18;;;;;;;;;;;;;;;7.51;65.57;101118.73;1700532;83;20593;-77
2021/04/12 07:56:12;;;;;;;;;;;;;;;7.43;65.98;101120.40;1680977;84;20647;-77
2021/04/12 07:59:27;;;;;;;;;;;;;;;7.37;66.07;101126.80;1686811;84;20326;-77
2021/04/12 08:02:49;;;;;;;;;;;;;;;7.34;66.03;101132.35;1701262;83;20279;-77
2021/04/12 08:05:37;;;;;;;;;;;;;;;7.33;66.44;101139.64;1705831;83;20315;-76
2021/04/12 08:08:43;;;;;;;;;;;;;;;7.42;66.53;101149.55;1708700;83;20213;-76
2021/04/12 08:11:54;;;;;;;;;;;;;;;7.45;66.56;101148.70;1704949;83;20388;-77
2021/04/12 08:15:08;;;;;;;;;;;;;;;7.45;66.47;101156.43;1696736;83;20537;-77
2021/04/12 08:18:06;;;;;;;;;;;;;;;7.43;66.54;101161.56;1703450;83;20188;-77
2021/04/12 08:21:20;;;;;;;;;;;;;;;7.44;66.66;101170.14;1703350;82;20286;-77
2021/04/12 08:24:08;;;;;;;;;;;;;;;7.40;66.54;101173.55;1683443;84;20263;-77
2021/04/12 08:27:21;;;;;;;;;;;;;;;7.37;66.71;101169.25;1673179;82;20252;-76
2021/04/12 08:30:42;;;;;;;;;;;;;;;7.38;66.80;101180.40;1669508;85;20573;-76
2021/04/12 08:34:05;;;;;;;;;;;;;;;7.29;66.64;101181.20;1671331;85;20534;-76
2021/04/12 08:37:02;;;;;;;;;;;;;;;7.20;66.87;101179.88;1608987;87;20299;-77
2021/04/12 08:39:59;;;;;;;;;;;;;;;7.17;66.76;101177.30;1621477;86;20309;-77
2021/04/12 08:43:03;;;;;;;;;;;;;;;7.16;67.03;101183.28;1614850;86;20304;-76
2021/04/12 08:46:08;;;;;;;;;;;;;;;7.12;66.89;101190.12;1616455;86;20297;-77
2021/04/12 08:48:55;;;;;;;;;;;;;;;7.08;66.98;101196.08;1623881;86;20262;-77
2021/04/12 08:51:59;;;;;;;;;;;;;;;7.09;67.04;101195.23;1619131;86;20303;-77
2021/04/12 08:55:16;;;;;;;;;;;;;;;7.00;66.85;101202.02;1623428;86;20178;-76
2021/04/12 08:58:34;;;;;;;;;;;;;;;6.93;66.97;101209.67;1650734;85;20315;-77
2021/04/12 09:01:28;;;;;;;;;;;;;;;6.85;67.01;101210.03;1642017;86;20332;-77
2021/04/12 09:04:34;;;;;;;;;;;;;;;6.82;66.82;101215.57;1640913;85;20586;-77
2021/04/12 09:07:47;;;;;;;;;;;;;;;6.73;66.97;101221.94;1679345;80;20536;-77
2021/04/12 09:10:45;;;;;;;;;;;;;;;6.70;66.94;101223.20;1753231;80;20250;-76
2021/04/12 09:13:49;;;;;;;;;;;;;;;6.66;67.00;101230.02;1747488;80;20276;-76
2021/04/12 09:16:40;;;;;;;;;;;;;;;6.61;67.11;101229.97;1750881;80;20252;-76
2021/04/12 09:19:37;;;;;;;;;;;;;;;6.56;67.07;101241.91;1737276;80;20249;-76
2021/04/12 09:22:37;;;;;;;;;;;;;;;6.51;66.92;101237.56;1738890;80;20551;-77
2021/04/12 09:25:37;;;;;;;;;;;;;;;6.43;67.28;101246.47;1751835;80;20268;-77
2021/04/12 09:28:47;;;;;;;;;;;;;;;6.41;67.21;101248.59;1734263;80;20848;-77
2021/04/12 09:31:47;;;;;;;;;;;;;;;6.34;67.35;101249.36;1742502;80;20703;-77
2021/04/12 09:35:04;;;;;;;;;;;;;;;6.30;67.28;101259.59;1750415;80;20256;-77
2021/04/12 09:38:10;;;;;;;;;;;;;;;6.26;67.48;101258.26;1746935;80;20257;-77
2021/04/12 09:41:07;;;;;;;;;;;;;;;6.27;67.59;101258.70;1747652;80;20290;-77
2021/04/12 09:44:01;;;;;;;;;;;;;;;6.29;67.57;101254.44;1752897;80;20324;-77
2021/04/12 09:47:04;;;;;;;;;;;;;;;6.31;67.61;101252.75;1745512;80;20699;-77
2021/04/12 09:50:05;;;;;;;;;;;;;;;6.36;67.62;101263.08;1750798;80;20311;-77
2021/04/12 09:53:14;;;;;;;;;;;;;;;6.34;67.59;101258.34;1750689;80;20332;-78
2021/04/12 09:56:19;;;;;;;;;;;;;;;6.30;67.54;101257.03;1751656;80;20412;-78
2021/04/12 09:59:22;;;;;;;;;;;;;;;6.33;67.70;101279.73;1744659;80;20288;-77
2021/04/12 10:02:25;;;;;;;;;;;;;;;6.35;67.47;101301.17;1719053;80;20269;-78
2021/04/12 10:05:36;;;;;;;;;;;;;;;6.34;67.81;101308.44;1722200;81;20173;-77
2021/04/12 10:08:30;;;;;;;;;;;;;;;6.40;67.82;101317.50;1755202;80;20268;-77
2021/04/12 10:11:19;;;;;;;;;;;;;;;6.42;67.74;101321.81;1713046;82;20264;-77
2021/04/12 10:14:22;;;;;;;;;;;;;;;6.47;68.08;101327.01;1731856;81;20612;-77
2021/04/12 10:17:13;;;;;;;;;;;;;;;6.50;68.13;101333.05;1698957;82;20284;-77
2021/04/12 10:20:00;;;;;;;;;;;;;;;6.52;67.98;101339.48;1703901;82;20173;-76
2021/04/12 10:22:57;;;;;;;;;;;;;;;6.47;67.97;101348.42;1735700;80;20271;-76
2021/04/12 10:26:05;;;;;;;;;;;;;;;6.44;68.05;101345.81;1739907;80;20527;-76
2021/04/12 10:29:02;;;;;;;;;;;;;;;6.40;67.91;101341.91;1734207;80;20253;-76
2021/04/12 10:31:55;;;;;;;;;;;;;;;6.42;68.07;101342.78;1747106;80;20269;-77
2021/04/12 10:34:46;;;;;;;;;;;;;;;6.36;68.06;101347.42;1741527;80;20267;-77
2021/04/12 10:37:55;;;;;;;;;;;;;;;6.40;68.31;101352.17;1745656;80;20302;-77
2021/04/12 10:40:52;;;;;;;;;;;;;;;6.41;68.41;101358.62;1737206;80;20253;-77
2021/04/12 10:43:59;;;;;;;;;;;;;;;6.43;68.11;101360.78;1690696;83;20473;-77
2021/04/12 10:46:47;;;;;;;;;;;;;;;6.42;68.67;101361.63;1699435;83;20310;-76
2021/04/12 10:49:38;;;;;;;;;;;;;;;6.41;68.83;101365.04;1704503;83;20292;-76
2021/04/12 10:52:29;;;;;;;;;;;;;;;6.43;68.49;101374.91;1689291;83;20309;-77
2021/04/12 10:55:22;;;;;;;;;;;;;;;6.48;68.53;101372.41;1719938;82;20311;-77
2021/04/12 10:58:31;;;;;;;;;;;;;;;6.56;68.87;101375.94;1714285;82;20309;-76
2021/04/12 11:01:35;;;;;;;;;;;;;;;6.59;68.80;101377.26;1718277;82;20305;-77
2021/04/12 11:04:29;;;;;;;;;;;;;;;6.61;68.65;101380.72;1712461;82;20334;-76
2021/04/12 11:07:19;;;;;;;;;;;;;;;6.67;68.68;101384.64;1720821;81;20304;-77
2021/04/12 11:10:22;;;;;;;;;;;;;;;6.71;68.69;101389.40;1720731;82;20310;-77
2021/04/12 11:13:33;;;;;;;;;;;;;;;6.73;68.65;101389.00;1709871;82;20334;-76
2021/04/12 11:16:22;;;;;;;;;;;;;;;6.74;68.45;101391.59;1716721;82;20305;-76
2021/04/12 11:19:13;;;;;;;;;;;;;;;6.67;68.34;101389.78;1723013;82;20302;-77
2021/04/12 11:22:18;;;;;;;;;;;;;;;6.58;68.36;101391.81;1723329;82;20293;-76
2021/04/12 11:25:06;;;;;;;;;;;;;;;6.44;68.12;101395.05;1727235;82;20271;-76
2021/04/12 11:28:09;;;;;;;;;;;;;;;6.37;68.42;101399.23;1713401;82;20275;-76
2021/04/12 11:31:03;;;;;;;;;;;;;;;6.30;68.21;101408.98;1727308;82;20482;-76
2021/04/12 11:34:03;;;;;;;;;;;;;;;6.17;68.37;101401.55;1716687;82;20537;-77
2021/04/12 11:36:57;;;;;;;;;;;;;;;6.11;68.43;101408.30;1729978;81;20170;-76
2021/04/12 11:39:45;;;;;;;;;;;;;;;6.16;68.67;101407.53;1731369;81;20255;-76
2021/04/12 11:42:32;;;;;;;;;;;;;;;6.25;68.49;101409.33;1721194;81;20567;-76
2021/04/12 11:45:20;;;;;;;;;;;;;;;6.31;68.46;101409.42;1702790;83;20169;-76
2021/04/12 11:48:14;;;;;;;;;;;;;;;6.38;68.49;101421.51;1722033;81;20262;-76
2021/04/12 11:51:01;;;;;;;;;;;;;;;6.37;68.40;101419.78;1718231;81;20260;-76
2021/04/12 11:54:00;;;;;;;;;;;;;;;6.39;68.50;101410.81;1726306;81;20262;-76
2021/04/12 11:56:48;;;;;;;;;;;;;;;6.43;68.41;101407.45;1740000;81;20275;-76
2021/04/12 11:59:35;;;;;;;;;;;;;;;6.43;68.35;101413.87;1735485;81;20260;-76
2021/04/12 12:02:49;;;;;;;;;;;;;;;6.42;68.24;101424.98;1733027;81;20517;-76
2021/04/12 12:05:37;;;;;;;;;;;;;;;6.45;68.44;101425.03;1733731;81;20216;-77
2021/04/12 12:08:27;;;;;;;;;;;;;;;6.63;68.82;101426.14;1726962;80;20257;-77
2021/04/12 12:11:18;;;;;;;;;;;;;;;6.78;68.49;101423.30;1732649;82;20500;-77
2021/04/12 12:14:06;;;;;;;;;;;;;;;6.79;68.24;101429.74;1728974;81;20779;-77
2021/04/12 12:16:54;;;;;;;;;;;;;;;6.81;68.11;101427.19;1713672;81;20256;-77
2021/04/12 12:19:48;;;;;;;;;;;;;;;6.79;68.07;101434.02;1708217;83;20418;-77
2021/04/12 12:22:51;;;;;;;;;;;;;;;6.72;68.13;101427.97;1741516;81;20319;-77
2021/04/12 12:25:47;;;;;;;;;;;;;;;6.64;68.06;101443.29;1636698;82;20321;-77
2021/04/12 12:28:48;;;;;;;;;;;;;;;6.66;68.15;101439.88;1704196;83;20259;-77
2021/04/12 12:31:36;;;;;;;;;;;;;;;6.67;68.20;101442.47;1707635;83;20571;-77
2021/04/12 12:34:33;;;;;;;;;;;;;;;6.67;68.22;101439.89;1693707;83;20411;-77
2021/04/12 12:37:42;;;;;;;;;;;;;;;6.73;68.35;101450.68;1720397;81;20297;-77
2021/04/12 12:40:30;;;;;;;;;;;;;;;6.60;68.01;101445.80;1717012;81;20316;-77
2021/04/12 12:43:21;;;;;;;;;;;;;;;6.46;68.22;101446.02;1734648;81;20502;-77
2021/04/12 12:46:09;;;;;;;;;;;;;;;6.33;68.15;101442.84;1726782;81;20580;-77
2021/04/12 12:49:06;;;;;;;;;;;;;;;6.18;68.19;101450.78;1704895;82;20264;-77
2021/04/12 12:51:53;;;;;;;;;;;;;;;6.12;68.31;101457.53;1741547;80;20588;-77
2021/04/12 12:54:41;;;;;;;;;;;;;;;6.05;68.32;101463.41;1749700;80;20252;-77
2021/04/12 12:57:38;;;;;;;;;;;;;;;5.93;68.25;101480.33;1749805;80;20193;-77
2021/04/12 13:00:34;;;;;;;;;;;;;;;5.83;68.50;101476.27;1751719;80;20250;-77
2021/04/12 13:03:31;;;;;;;;;;;;;;;5.77;68.54;101483.44;1755441;80;20567;-77
2021/04/12 13:06:22;;;;;;;;;;;;;;;5.72;68.64;101486.34;1746557;80;20163;-77
2021/04/12 13:09:28;;;;;;;;;;;;;;;5.69;68.94;101495.30;1748711;80;20223;-77
2021/04/12 13:12:15;;;;;;;;;;;;;;;5.63;68.87;101509.30;1739042;80;20280;-77
2021/04/12 13:15:15;;;;;;;;;;;;;;;5.53;68.92;101506.98;1736418;80;20676;-77
2021/04/12 13:18:19;;;;;;;;;;;;;;;5.51;69.20;101513.78;1751700;80;21387;-77
2021/04/12 13:21:15;;;;;;;;;;;;;;;5.56;69.11;101510.88;1754366;80;20385;-77
2021/04/12 13:24:09;;;;;;;;;;;;;;;5.56;69.15;101514.73;1756605;80;20321;-77
2021/04/12 13:27:01;;;;;;;;;;;;;;;5.56;69.11;101517.71;1740848;80;20290;-77
2021/04/12 13:29:49;;;;;;;;;;;;;;;5.51;69.02;101525.73;1745411;80;20326;-77
2021/04/12 13:32:36;;;;;;;;;;;;;;;5.42;69.11;101522.99;1745527;80;20288;-77
2021/04/12 13:35:22;;;;;;;;;;;;;;;5.38;69.25;101526.33;1741988;80;20610;-77
2021/04/12 13:38:22;;;;;;;;;;;;;;;5.36;69.10;101517.75;1750711;80;20282;-77
2021/04/12 13:41:12;;;;;;;;;;;;;;;5.30;69.38;101531.31;1747523;80;20333;-78
2021/04/12 13:44:06;;;;;;;;;;;;;;;5.31;69.53;101543.30;1722530;82;20296;-77
2021/04/12 13:46:59;;;;;;;;;;;;;;;5.30;69.61;101547.56;1725001;82;20302;-76
2021/04/12 13:49:52;;;;;;;;;;;;;;;5.30;69.50;101547.56;1712043;82;20304;-76
2021/04/12 13:52:40;;;;;;;;;;;;;;;5.29;69.57;101554.80;1720774;82;20304;-76
2021/04/12 13:55:28;;;;;;;;;;;;;;;5.18;69.34;101555.44;1727175;82;20233;-76
2021/04/12 13:58:16;;;;;;;;;;;;;;;5.10;69.31;101553.13;1729803;81;20296;-76
2021/04/12 14:01:12;;;;;;;;;;;;;;;4.95;69.58;101557.09;1721983;82;20722;-76
2021/04/12 14:04:08;;;;;;;;;;;;;;;4.91;69.65;101564.27;1733196;82;20564;-76
2021/04/12 14:07:01;;;;;;;;;;;;;;;4.90;69.77;101568.94;1723351;82;20338;-76
2021/04/12 14:09:55;;;;;;;;;;;;;;;4.86;69.63;101577.39;1720257;82;20311;-76
2021/04/12 14:12:53;;;;;;;;;;;;;;;4.87;69.92;101578.25;1717186;82;20294;-77
2021/04/12 14:15:52;;;;;;;;;;;;;;;4.87;69.98;101569.28;1707342;82;20297;-77
2021/04/12 14:18:45;;;;;;;;;;;;;;;4.87;69.89;101579.53;1727535;81;20679;-76
2021/04/12 14:21:33;;;;;;;;;;;;;;;4.91;70.10;101589.03;1702894;82;20263;-75
2021/04/12 14:24:21;;;;;;;;;;;;;;;4.92;70.12;101594.60;1732501;82;20285;-77
2021/04/12 14:27:16;;;;;;;;;;;;;;;4.99;70.26;101599.03;1728014;82;20305;-76
2021/04/12 14:30:07;;;;;;;;;;;;;;;4.99;70.16;101597.75;1708476;82;21328;-76
2021/04/12 14:33:00;;;;;;;;;;;;;;;4.94;70.13;101596.78;1720377;81;20300;-77
2021/04/12 14:35:45;;;;;;;;;;;;;;;4.91;70.03;101593.73;1736086;82;21003;-77
2021/04/12 14:38:31;;;;;;;;;;;;;;;4.87;70.08;101600.03;1692627;83;20333;-77
2021/04/12 14:41:24;;;;;;;;;;;;;;;4.84;70.08;101606.37;1728473;81;20273;-76
2021/04/12 14:44:13;;;;;;;;;;;;;;;4.84;70.27;101614.06;1748389;81;20185;-77
2021/04/12 14:46:58;;;;;;;;;;;;;;;4.91;70.41;101613.37;1715696;82;20298;-77
2021/04/12 14:49:52;;;;;;;;;;;;;;;5.02;70.43;101615.77;1709147;82;20298;-76
2021/04/12 14:52:43;;;;;;;;;;;;;;;5.07;70.36;101626.98;1723851;81;20277;-76
2021/04/12 14:55:42;;;;;;;;;;;;;;;5.10;70.16;101619.78;1712062;81;20251;-76
2021/04/12 14:58:32;;;;;;;;;;;;;;;5.08;70.18;101622.31;1735830;81;20317;-76
2021/04/12 15:01:33;;;;;;;;;;;;;;;5.12;70.41;101625.39;1748011;81;20291;-76
2021/04/12 15:04:23;;;;;;;;;;;;;;;5.19;70.36;101625.12;1747123;81;20161;-77
2021/04/12 15:07:14;;;;;;;;;;;;;;;5.19;70.31;101636.23;1741741;81;20296;-78
2021/04/12 15:10:07;;;;;;;;;;;;;;;5.17;70.27;101634.06;1737516;81;20275;-79
2021/04/12 15:13:04;;;;;;;;;;;;;;;5.13;70.31;101631.39;1740839;81;20531;-78
2021/04/12 15:15:50;;;;;;;;;;;;;;;5.09;70.25;101631.73;1689463;81;20288;-80
2021/04/12 15:18:36;;;;;;;;;;;;;;;5.06;70.33;101629.52;1738188;81;20893;-79
2021/04/12 15:21:30;;;;;;;;;;;;;;;5.02;70.30;101631.56;1732843;81;20189;-74
2021/04/12 15:24:23;;;;;;;;;;;;;;;4.95;70.24;101628.85;1744827;81;20276;-75
2021/04/12 15:27:20;;;;;;;;;;;;;;;4.88;70.31;101641.08;1718002;81;20460;-75
2021/04/12 15:30:08;;;;;;;;;;;;;;;4.82;70.42;101648.61;1578562;82;10000332;-75
2021/04/12 15:33:08;;;;;;;;;;;;;;;4.85;70.53;101654.23;1701081;82;21113;-77